Relevés horaires Antwerpen / Deurne (Belgique)


Relevés horaires à Antwerpen / Deurne - Samedi 16 Nov. 2019
Heure UTC1 Température [°C] Vent [km/h] Hum. [%] Pres.4 [hPa] Visi. [Km] Nébu. [octa] Préc.5 [mm] Cond.
2m. Res. Ros. Dir.2 Vit. Moy. Raf.3
23:00 5.4 5.4 2.9 SE 3.7 3.7 5.6 84 1010.9(0.0/3h) 23 8/8 -- --
22:00 5.8 5.8 3.0 SSE 3.7 3.7 5.6 82 1011(0.3/3h) 20 7/8 -- --
21:00 6.2 6.2 2.8 S 1.9 3.7 5.6 79 1011(1.0/3h) 20 7/8 -- --
20:00 6.1 6.1 2.8 S 3.7 3.7 5.6 79 1010.9(1.6/3h) 20 7/8 -- --
19:00 6.3 6.3 2.8 SSO 1.9 1.9 3.7 78 1010.7(1.7/3h) 20 7/8 -- --
18:00 5.1 5.1 2.4 SSE 1.9 7.4 11.1 83 1010(1.8/3h) 20 7/8 0/12h
--
17:00 4.2 4.2 2.2 NNO 0.0 3.7 5.6 87 1009.4(1.5/3h) 20 6/8 -- --
16:00 5.8 5.8 2.3 S 3.7 5.6 9.3 78 1009(1.0/3h) 20 7/8 -- --
15:00 7.1 6.3 2.1 SSE 5.6 7.4 11.1 70 1008.2(-0.2/3h) 20 7/8 -- --
14:00 7.6 6.8 2.2 S 5.6 7.4 9.3 69 1007.9(-0.3/3h) 20 7/8 -- --
13:00 7.5 6.2 2.3 S 7.4 7.4 11.1 70 1008.1(-0.1/3h) 20 7/8 -- --
12:00 7.6 6.3 1.7 S 7.4 7.4 11.1 66 1008(0.1/3h) 20 7/8 0/6h
--
11:00 6.4 5.5 2.0 S 5.6 5.6 9.3 73 1008.2(0.7/3h) 20 6/8 -- --
10:00 4.8 4.8 1.8 SSE 3.7 5.6 7.4 81 1008.1(1.2/3h) 20 5/8 -- --
09:00 2.0 2.0 -- SSE 3.7 3.7 5.6 -- 1007.9(1.8/3h) 20 5/8 -- --
08:00 0.1 0.1 -1.0 ESE 1.9 3.7 5.6 92 1007.6(1.8/3h) 20 1/8 -- --
07:00 -0.8 -0.8 -2.0 E 1.9 1.9 1.9 92 1006.9(1.4/3h) 20 1/8 -- --
06:00 -0.4 -0.4 -1.0 NNO 0.0 5.6 5.6 96 1006.1(0.7/3h) 20 1/8 0/12h
--
05:00 1.2 1.2 -0.3 E 1.9 3.7 3.7 90 1005.7(-0.2/3h) 15 0/8 -- --
04:00 0.6 0.6 -0.7 ESE 1.9 3.7 5.6 91 1005.5(0.3/3h) 35 0/8 -- --
03:00 0.4 0.4 -0.5 SE 3.7 5.6 5.6 94 1005.4(0.4/3h) 22 0/8 -- --
02:00 1.3 1.3 -- E 3.7 3.7 5.6 -- 1005.6(0.8/3h) 30 0/8 -- --
01:00 0.9 0.9 -0.4 E 3.7 5.6 5.6 91 1005.2(1.0/3h) 35 5/8 -- --
00:00 1.9 0.3 0.2 E 5.6 13.0 20.4 88 1005(1.7/3h) 45 0/8 0/6h
0/24h
--

1 Coordinated Universal Time. Actuellement il est 05:00 locale et 04:00 UTC.

2 Le vent souffle depuis la direction indiquée vers la direction oposée.

3 Les rafales max. sont disponible 40 min après l'heure du relevé.

4 Pour les stations d'altitude (plus de 600m) le géopotentiel du niveau le plus proche de la pression obligatoire est indiqué.

5 Les stations disposant d'un diffuseur peuvent indiquer "trace". Cela signifie que des précipitations ont touchés le sol mais que la quantité est inférieure à 0.1 mm.

Récapitulatif de la journée
Température [°C] Vent [km/h] Ensoleillement4 [h] Precipitations totale5 [mm] Pression [Hpa]
Min1 Max.2 Moy.3 Max. Min Max.
-0.9 8.1 5.2 20.4 0 h 0 min 0 1005.0 1011.0

1 Température minimale relevée entre 18:00 UTC la veille et 18:00 UTC le jour donné.

2 Température maximale relevée entre 06:00 UTC le jour donné et 06:00 UTC le lendemain.

3 Vent moyen de la journée basé sur les relevés horaires.

4 Ensoleillement en heures relevé entre 06:00 UTC la veille et 06:00 UTC le jour donné.

5 Précipitations totales tombées entre 06:00 UTC la jour donné et 06:00 UTC le lendemain.

Graphiques horaires